EDDS/STR METAR and TAF weather

Enter ICAO airport designator
Station Type Date Time Source
EDDS METAR 2022/01/19 20:50 UTC NOAA

EDDS 192050Z 24010KT 190V260 9999 -SNRA FEW014 BKN022 BKN028 03/M01 Q1023 NOSIG


Station Type Date Time Source
EDDS Decoded METAR 2022/01/19 20:50 UTC NOAA

Stuttgart-Echterdingen, Germany (EDDS) 48-41N 009-13E 391M
Jan 19, 2022 - 03:50 PM EST / 2022.01.19 2050 UTC
Wind: from the WSW (240 degrees) at 12 MPH (10 KT) (direction variable):0
Visibility: greater than 7 mile(s):0
Sky conditions: mostly cloudy
Weather: light snow, rain
Temperature: 37 F (3 C)
Dew Point: 30 F (-1 C)
Relative Humidity: 74%
Pressure (altimeter): 30.21 in. Hg (1023 hPa)
ob: EDDS 192050Z 24010KT 190V260 9999 -SNRA FEW014 BKN022 BKN028 03/M01 Q1023 NOSIG
cycle: 21

Station Type Date Time Source
EDDS TAF 2022/01/19 18:30 UTC NOAA

TAF EDDS 191700Z 1918/2018 22007KT 9999 BKN030
TEMPO 1921/2006 RASN PROB40
TEMPO 1921/2006 2500 SN OVC008
TEMPO 2009/2014 2500 SHSNRA BKN012CB
BECMG 2009/2011 28011KT

Example: see airport list